CDT,Max TemperatureF,Mean TemperatureF,Min TemperatureF,Max Dew PointF,MeanDew PointF,Min DewpointF,Max Humidity, Mean Humidity, Min Humidity, Max Sea Level PressureIn, Mean Sea Level PressureIn, Min Sea Level PressureIn, Max VisibilityMiles, Mean VisibilityMiles, Min VisibilityMiles, Max Wind SpeedMPH, Mean Wind SpeedMPH, Max Gust SpeedMPH,PrecipitationIn, CloudCover, Events, WindDirDegrees
2013-6-1,73,67,61,66,62,57,93,83,73,29.85,29.79,29.70,10,9,1,28,16,33,0.47,5,Rain-Thunderstorm,201
2013-6-2,67,60,53,59,56,50,90,82,73,30.05,29.95,29.81,10,9,3,17,10,20,T,7,Rain,320
2013-6-3,68,59,50,48,45,42,83,64,45,30.12,30.06,30.03,10,10,10,17,8,23,0.00,2,,50
2013-6-4,75,63,51,53,50,46,83,62,41,30.13,30.09,30.05,10,10,10,16,9,21,0.00,0,,90
2013-6-5,82,70,57,58,54,50,80,58,36,30.06,29.97,29.86,10,10,9,10,7,22,0.00,1,,80
2013-6-6,81,72,62,56,53,48,73,58,42,29.86,29.82,29.80,10,10,10,17,9,21,0.00,2,,32
2013-6-7,75,66,57,58,53,48,77,65,52,29.92,29.87,29.84,10,10,7,14,8,29,0.00,5,,36
2013-6-8,81,67,52,57,49,42,77,55,32,29.99,29.95,29.91,10,10,10,15,5,21,0.00,3,,124
2013-6-9,85,73,61,65,58,51,87,61,34,29.99,29.90,29.81,10,9,4,23,11,30,T,4,Rain,157
2013-6-10,80,71,61,64,60,56,97,70,42,29.90,29.81,29.76,10,7,0,16,8,21,0.00,4,Fog,240
2013-6-11,89,74,58,70,63,56,90,67,43,29.97,29.91,29.83,10,10,8,23,7,28,T,0,,216
2013-6-12,97,84,70,70,68,66,97,68,38,29.91,29.79,29.63,10,10,9,29,15,36,T,1,,232
2013-6-13,83,72,61,71,59,51,87,62,36,30.01,29.85,29.65,10,10,10,29,15,37,0.00,3,Rain,351
2013-6-14,83,69,55,56,52,48,86,60,33,30.11,30.05,29.98,10,10,10,13,5,17,0.00,0,,32
2013-6-15,84,74,64,70,63,56,93,68,43,30.09,30.01,29.92,10,8,0,44,9,52,0.00,3,Fog-Rain,214
2013-6-16,81,74,67,71,67,64,100,85,69,30.00,29.96,29.93,10,9,3,20,8,23,0.03,5,Rain,227
2013-6-17,86,76,65,72,66,58,100,69,37,29.98,29.94,29.88,10,5,0,16,2,22,0.00,1,Fog,239
2013-6-18,87,75,62,66,62,55,100,70,40,30.01,29.94,29.90,10,10,6,21,8,26,0.00,1,,11
2013-6-19,85,73,60,65,59,53,84,64,43,30.09,30.05,30.01,10,10,8,13,7,16,0.00,1,,91
2013-6-20,88,76,64,65,63,60,87,64,40,30.16,30.12,30.09,10,10,8,15,8,21,0.00,1,,149
2013-6-21,91,79,67,69,66,63,84,64,44,30.13,30.09,29.98,10,10,9,25,10,32,0.00,2,Rain-Thunderstorm,165
2013-6-22,86,76,66,72,67,64,100,83,65,30.16,30.09,30.00,10,7,0,29,9,37,0.83,3,Fog-Rain-Thunderstorm,156
2013-6-23,81,74,67,70,68,65,100,81,62,30.08,30.04,29.99,10,10,5,20,10,25,0.00,1,,174
2013-6-24,87,76,65,76,69,61,100,82,63,30.12,30.03,29.95,10,10,8,18,8,24,T,3,Thunderstorm,177
2013-6-25,89,77,65,74,68,63,97,80,63,30.00,29.92,29.85,10,6,0,40,10,49,2.40,4,Fog-Rain-Hail-Thunderstorm,189
2013-6-26,80,74,68,76,72,61,100,88,65,29.89,29.79,29.73,10,8,4,26,9,33,0.00,4,Rain-Thunderstorm,202
2013-6-27,89,80,71,75,72,68,100,78,55,29.84,29.79,29.73,10,5,0,16,10,24,0.02,4,Fog-Rain,273
2013-6-28,84,75,66,68,64,59,93,70,47,29.78,29.70,29.64,10,10,10,24,11,32,0.03,2,Rain,281
2013-6-29,74,69,63,66,64,61,93,86,78,29.72,29.64,29.62,10,9,2,18,8,22,0.30,5,Rain,320
2013-6-30,76,70,63,63,61,54,93,76,58,29.91,29.82,29.73,10,10,6,22,12,30,T,7,Rain,14